Time,TemperatureF,DewpointF,PressureIn,WindDirection,WindDirectionDegrees,WindSpeedMPH,WindSpeedGustMPH,Humidity,HourlyPrecipIn,Conditions,Clouds,dailyrainin,SoftwareType,DateUTC
2013-05-21 00:01:00,55.8,55.0,29.60,NW,307,0.0,0.0,97,0.00,,---,0.33,VWS V14.00,2013-05-21 05:01:00,
2013-05-21 00:06:00,55.5,54.7,29.59,NW,307,0.0,0.0,97,0.00,,---,0.00,VWS V14.00,2013-05-21 05:06:00,
2013-05-21 00:11:00,55.4,54.6,29.59,NW,307,0.0,0.0,97,0.00,,---,0.00,VWS V14.00,2013-05-21 05:11:00,
2013-05-21 00:16:00,55.3,54.5,29.60,NW,307,0.0,0.0,97,0.00,,---,0.00,VWS V14.00,2013-05-21 05:16:00,
2013-05-21 00:21:00,55.3,54.5,29.59,NW,307,0.0,0.0,97,0.00,,---,0.00,VWS V14.00,2013-05-21 05:21:00,
2013-05-21 00:26:00,55.3,54.5,29.59,NW,307,0.0,0.0,97,0.00,,---,0.00,VWS V14.00,2013-05-21 05:26:00,
2013-05-21 00:31:00,55.4,54.8,29.59,NW,307,0.0,0.0,98,0.00,,---,0.00,VWS V14.00,2013-05-21 05:31:00,
2013-05-21 00:36:00,55.4,54.8,29.59,NW,307,0.0,0.0,98,0.00,,---,0.00,VWS V14.00,2013-05-21 05:36:00,
2013-05-21 00:41:00,55.4,54.8,29.59,NW,307,0.0,1.0,98,0.00,,---,0.00,VWS V14.00,2013-05-21 05:41:00,
2013-05-21 00:46:00,55.4,54.8,29.59,NW,307,0.0,2.0,98,0.00,,---,0.00,VWS V14.00,2013-05-21 05:46:00,
2013-05-21 00:51:00,55.6,55.0,29.59,NW,307,0.0,0.0,98,0.00,,---,0.00,VWS V14.00,2013-05-21 05:51:00,
2013-05-21 00:56:00,55.7,55.2,29.59,NW,307,0.0,0.0,98,0.00,,---,0.00,VWS V14.00,2013-05-21 05:56:00,
2013-05-21 01:01:00,56.0,55.5,29.59,NW,307,0.0,0.0,98,0.00,,---,0.00,VWS V14.00,2013-05-21 06:01:00,
2013-05-21 01:06:00,56.1,55.5,29.59,NW,307,0.0,0.0,98,0.00,,---,0.00,VWS V14.00,2013-05-21 06:06:00,
2013-05-21 01:11:00,56.3,56.0,29.58,NW,307,0.0,0.0,99,0.00,,---,0.00,VWS V14.00,2013-05-21 06:11:00,
2013-05-21 01:16:00,56.3,56.0,29.58,NW,307,0.0,0.0,99,0.00,,---,0.00,VWS V14.00,2013-05-21 06:16:00,
2013-05-21 01:21:00,56.3,56.0,29.58,NW,320,0.0,3.0,99,0.00,,---,0.00,VWS V14.00,2013-05-21 06:21:00,
2013-05-21 01:26:00,56.2,55.7,29.57,NW,320,0.0,3.0,98,0.00,,---,0.00,VWS V14.00,2013-05-21 06:26:00,
2013-05-21 01:31:00,56.1,55.5,29.58,NW,320,0.0,3.0,98,0.00,,---,0.00,VWS V14.00,2013-05-21 06:31:00,
2013-05-21 01:36:00,56.2,55.7,29.57,NW,320,0.0,0.0,98,0.00,,---,0.00,VWS V14.00,2013-05-21 06:36:00,
2013-05-21 01:41:00,56.1,55.5,29.58,NW,320,0.0,2.0,98,0.00,,---,0.00,VWS V14.00,2013-05-21 06:41:00,
2013-05-21 01:46:00,56.0,55.5,29.57,NW,320,0.0,2.0,98,0.00,,---,0.00,VWS V14.00,2013-05-21 06:46:00,
2013-05-21 01:51:00,56.1,55.5,29.56,NW,320,0.0,2.0,98,0.00,,---,0.00,VWS V14.00,2013-05-21 06:51:00,
2013-05-21 01:56:00,56.0,55.5,29.56,NW,320,0.0,2.0,98,0.00,,---,0.00,VWS V14.00,2013-05-21 06:56:00,
2013-05-21 02:01:00,55.9,55.3,29.56,NW,320,0.0,2.0,98,0.00,,---,0.00,VWS V14.00,2013-05-21 07:01:00,
2013-05-21 02:06:00,55.8,55.2,29.56,NW,320,1.0,2.0,98,0.00,,---,0.00,VWS V14.00,2013-05-21 07:06:00,
2013-05-21 02:11:00,55.7,55.2,29.56,NW,320,0.0,2.0,98,0.00,,---,0.00,VWS V14.00,2013-05-21 07:11:00,
2013-05-21 02:16:00,55.8,55.2,29.55,NNW,338,3.0,3.0,98,0.00,,---,0.00,VWS V14.00,2013-05-21 07:16:00,
2013-05-21 02:21:00,55.8,55.2,29.55,North,5,0.0,0.0,98,0.00,,---,0.00,VWS V14.00,2013-05-21 07:21:00,
2013-05-21 02:26:00,55.7,55.2,29.56,North,5,0.0,0.0,98,0.00,,---,0.00,VWS V14.00,2013-05-21 07:26:00,
2013-05-21 02:31:00,55.7,55.2,29.56,North,5,0.0,0.0,98,0.00,,---,0.00,VWS V14.00,2013-05-21 07:31:00,
2013-05-21 02:36:00,55.7,55.2,29.55,North,5,0.0,0.0,98,0.00,,---,0.00,VWS V14.00,2013-05-21 07:36:00,
2013-05-21 02:41:00,55.7,55.2,29.55,North,5,0.0,0.0,98,0.00,,---,0.00,VWS V14.00,2013-05-21 07:41:00,
2013-05-21 02:46:00,55.7,55.2,29.55,North,5,0.0,0.0,98,0.00,,---,0.00,VWS V14.00,2013-05-21 07:46:00,
2013-05-21 02:51:00,55.7,55.4,29.55,North,5,0.0,0.0,99,0.00,,---,0.00,VWS V14.00,2013-05-21 07:51:00,
2013-05-21 02:56:00,55.7,55.2,29.54,North,5,0.0,2.0,98,0.00,,---,0.00,VWS V14.00,2013-05-21 07:56:00,
2013-05-21 03:01:00,55.7,55.2,29.54,North,5,0.0,2.0,98,0.00,,---,0.00,VWS V14.00,2013-05-21 08:01:00,
2013-05-21 03:06:00,55.6,55.0,29.54,North,5,0.0,0.0,98,0.00,,---,0.00,VWS V14.00,2013-05-21 08:06:00,
2013-05-21 03:11:00,55.5,55.0,29.54,North,5,0.0,0.0,98,0.00,,---,0.00,VWS V14.00,2013-05-21 08:11:00,
2013-05-21 03:16:00,55.7,55.4,29.54,North,5,0.0,0.0,99,0.00,,---,0.00,VWS V14.00,2013-05-21 08:16:00,
2013-05-21 03:21:00,55.7,55.4,29.53,North,5,0.0,0.0,99,0.00,,---,0.00,VWS V14.00,2013-05-21 08:21:00,
2013-05-21 03:26:00,55.7,55.4,29.53,North,5,0.0,0.0,99,0.00,,---,0.00,VWS V14.00,2013-05-21 08:26:00,
2013-05-21 03:31:00,55.7,55.4,29.52,North,5,0.0,2.0,99,0.00,,---,0.00,VWS V14.00,2013-05-21 08:31:00,
2013-05-21 03:36:00,55.7,55.4,29.52,North,5,0.0,0.0,99,0.00,,---,0.00,VWS V14.00,2013-05-21 08:36:00,
2013-05-21 03:41:00,55.7,55.4,29.51,North,5,0.0,0.0,99,0.00,,---,0.00,VWS V14.00,2013-05-21 08:41:00,
2013-05-21 03:46:00,55.7,55.4,29.51,North,5,0.0,0.0,99,0.00,,---,0.00,VWS V14.00,2013-05-21 08:46:00,
2013-05-21 03:51:00,55.8,55.5,29.52,North,5,0.0,0.0,99,0.00,,---,0.01,VWS V14.00,2013-05-21 08:51:00,
2013-05-21 03:56:00,55.9,55.6,29.53,North,5,0.0,1.0,99,0.00,,---,0.01,VWS V14.00,2013-05-21 08:56:00,
2013-05-21 04:01:00,56.2,55.9,29.53,North,5,0.0,3.0,99,0.00,,---,0.01,VWS V14.00,2013-05-21 09:01:00,
2013-05-21 04:06:00,56.4,56.1,29.53,North,355,0.0,4.0,99,0.00,,---,0.01,VWS V14.00,2013-05-21 09:06:00,
2013-05-21 04:11:00,56.5,56.2,29.52,North,5,0.0,4.0,99,0.00,,---,0.01,VWS V14.00,2013-05-21 09:11:00,
2013-05-21 04:16:00,56.7,56.4,29.52,North,5,0.0,4.0,99,0.00,,---,0.01,VWS V14.00,2013-05-21 09:16:00,
2013-05-21 04:21:00,56.8,56.5,29.53,North,5,0.0,0.0,99,0.00,,---,0.01,VWS V14.00,2013-05-21 09:21:00,
2013-05-21 04:26:00,56.8,56.5,29.54,North,5,0.0,0.0,99,0.00,,---,0.01,VWS V14.00,2013-05-21 09:26:00,
2013-05-21 04:31:00,56.8,56.5,29.55,SE,136,1.0,1.0,99,0.00,,---,0.01,VWS V14.00,2013-05-21 09:31:00,
2013-05-21 04:36:00,56.9,56.6,29.55,NE,44,0.0,4.0,99,0.00,,---,0.01,VWS V14.00,2013-05-21 09:36:00,
2013-05-21 04:41:00,57.1,56.8,29.55,SE,145,0.0,4.0,99,0.00,,---,0.01,VWS V14.00,2013-05-21 09:41:00,
2013-05-21 04:46:00,57.2,56.9,29.55,West,267,0.0,4.0,99,0.00,,---,0.01,VWS V14.00,2013-05-21 09:46:00,
2013-05-21 04:51:00,57.3,57.0,29.54,West,267,0.0,1.0,99,0.00,,---,0.01,VWS V14.00,2013-05-21 09:51:00,
2013-05-21 04:56:00,57.5,57.2,29.53,NNW,348,2.0,6.0,99,0.00,,---,0.01,VWS V14.00,2013-05-21 09:56:00,
2013-05-21 05:01:00,57.6,57.3,29.53,NNE,24,0.0,6.0,99,0.00,,---,0.01,VWS V14.00,2013-05-21 10:01:00,
2013-05-21 05:06:00,57.5,57.2,29.53,NNE,20,0.0,0.0,99,0.00,,---,0.01,VWS V14.00,2013-05-21 10:06:00,
2013-05-21 05:10:00,57.5,57.2,29.52,NNE,20,1.0,1.0,99,0.00,,---,0.01,VWS V14.00,2013-05-21 10:10:00,
2013-05-21 05:15:00,57.6,57.3,29.52,NNE,26,2.0,4.0,99,0.00,,---,0.01,VWS V14.00,2013-05-21 10:15:00,
2013-05-21 05:20:00,57.8,57.5,29.51,NNE,26,1.0,3.0,99,0.00,,---,0.01,VWS V14.00,2013-05-21 10:20:00,
2013-05-21 05:25:00,57.9,57.6,29.50,NNE,17,4.0,5.0,99,0.00,,---,0.01,VWS V14.00,2013-05-21 10:25:00,
2013-05-21 05:30:00,57.9,57.6,29.51,NNE,17,0.0,7.0,99,0.00,,---,0.01,VWS V14.00,2013-05-21 10:30:00,
2013-05-21 05:35:00,58.0,57.7,29.51,NE,54,2.0,2.0,99,0.00,,---,0.01,VWS V14.00,2013-05-21 10:35:00,
2013-05-21 05:40:00,57.9,57.6,29.51,NNE,18,0.0,7.0,99,0.00,,---,0.01,VWS V14.00,2013-05-21 10:40:00,
2013-05-21 05:45:00,57.9,57.6,29.51,NNE,24,4.0,7.0,99,0.00,,---,0.01,VWS V14.00,2013-05-21 10:45:00,
2013-05-21 05:50:00,57.8,57.5,29.50,North,355,3.0,7.0,99,0.00,,---,0.01,VWS V14.00,2013-05-21 10:50:00,
2013-05-21 05:55:00,57.7,57.4,29.50,North,5,0.0,7.0,99,0.00,,---,0.01,VWS V14.00,2013-05-21 10:55:00,
2013-05-21 06:00:00,57.7,57.4,29.50,NNE,30,3.0,7.0,99,0.00,,---,0.01,VWS V14.00,2013-05-21 11:00:00,
2013-05-21 06:05:00,57.6,57.3,29.50,NNE,29,1.0,3.0,99,0.00,,---,0.01,VWS V14.00,2013-05-21 11:05:00,
2013-05-21 06:10:00,57.6,57.3,29.50,NNE,23,5.0,9.0,99,0.00,,---,0.02,VWS V14.00,2013-05-21 11:10:00,
2013-05-21 06:15:00,57.6,57.3,29.50,North,5,2.0,9.0,99,0.00,,---,0.02,VWS V14.00,2013-05-21 11:15:00,
2013-05-21 06:20:00,57.6,57.3,29.50,NNE,26,5.0,6.0,99,0.00,,---,0.02,VWS V14.00,2013-05-21 11:20:00,
2013-05-21 06:25:00,57.6,57.3,29.50,NNE,19,0.0,6.0,99,0.00,,---,0.02,VWS V14.00,2013-05-21 11:25:00,
2013-05-21 06:30:00,57.5,57.2,29.50,North,11,0.0,6.0,99,0.00,,---,0.02,VWS V14.00,2013-05-21 11:30:00,
2013-05-21 06:36:00,57.5,57.2,29.50,NNE,21,0.0,0.0,99,0.00,,---,0.02,VWS V14.00,2013-05-21 11:36:00,
2013-05-21 06:41:00,57.5,57.2,29.50,NE,41,1.0,6.0,99,0.00,,---,0.02,VWS V14.00,2013-05-21 11:41:00,
2013-05-21 06:46:00,57.5,57.2,29.50,NE,55,0.0,6.0,99,0.00,,---,0.02,VWS V14.00,2013-05-21 11:46:00,
2013-05-21 06:51:00,57.5,57.2,29.50,North,355,0.0,2.0,99,0.00,,---,0.02,VWS V14.00,2013-05-21 11:51:00,
2013-05-21 06:56:00,57.4,57.1,29.50,NNW,340,0.0,4.0,99,0.00,,---,0.02,VWS V14.00,2013-05-21 11:56:00,
2013-05-21 07:01:00,57.3,57.0,29.50,NE,36,1.0,5.0,99,0.00,,---,0.02,VWS V14.00,2013-05-21 12:01:00,
2013-05-21 07:06:00,57.2,56.6,29.50,NNW,338,0.0,5.0,98,0.00,,---,0.02,VWS V14.00,2013-05-21 12:06:00,
2013-05-21 07:11:00,57.2,56.6,29.50,North,5,0.0,5.0,98,0.00,,---,0.02,VWS V14.00,2013-05-21 12:11:00,
2013-05-21 07:16:00,57.1,56.5,29.50,NNE,26,0.0,9.0,98,0.00,,---,0.02,VWS V14.00,2013-05-21 12:16:00,
2013-05-21 07:21:00,57.1,56.5,29.50,NNW,348,0.0,4.0,98,0.00,,---,0.02,VWS V14.00,2013-05-21 12:21:00,
2013-05-21 07:26:00,57.1,56.5,29.50,NE,38,0.0,4.0,98,0.00,,---,0.02,VWS V14.00,2013-05-21 12:26:00,
2013-05-21 07:31:00,57.1,56.5,29.50,ENE,71,0.0,7.0,98,0.00,,---,0.02,VWS V14.00,2013-05-21 12:31:00,
2013-05-21 07:36:00,57.0,56.4,29.50,NNE,27,1.0,2.0,98,0.00,,---,0.02,VWS V14.00,2013-05-21 12:36:00,
2013-05-21 07:41:00,57.0,56.4,29.50,NNE,15,2.0,2.0,98,0.00,,---,0.02,VWS V14.00,2013-05-21 12:41:00,
2013-05-21 07:46:00,56.9,56.3,29.50,NNE,22,0.0,7.0,98,0.00,,---,0.02,VWS V14.00,2013-05-21 12:46:00,
2013-05-21 07:51:00,56.9,56.3,29.50,SE,136,0.0,3.0,98,0.00,,---,0.02,VWS V14.00,2013-05-21 12:51:00,
2013-05-21 07:56:00,56.9,56.3,29.51,North,360,0.0,3.0,98,0.00,,---,0.02,VWS V14.00,2013-05-21 12:56:00,
2013-05-21 08:01:00,57.0,56.4,29.51,North,360,0.0,3.0,98,0.00,,---,0.02,VWS V14.00,2013-05-21 13:01:00,
2013-05-21 08:06:00,56.9,56.3,29.51,SE,129,0.0,5.0,98,0.00,,---,0.02,VWS V14.00,2013-05-21 13:06:00,
2013-05-21 08:11:00,57.0,56.7,29.51,SE,139,0.0,5.0,99,0.00,,---,0.02,VWS V14.00,2013-05-21 13:11:00,
2013-05-21 08:16:00,57.1,56.8,29.51,ENE,78,0.0,5.0,99,0.00,,---,0.02,VWS V14.00,2013-05-21 13:16:00,
2013-05-21 08:21:00,57.2,56.9,29.51,SSE,159,0.0,5.0,99,0.00,,---,0.02,VWS V14.00,2013-05-21 13:21:00,
2013-05-21 08:26:00,57.3,57.0,29.51,NNE,22,4.0,5.0,99,0.00,,---,0.02,VWS V14.00,2013-05-21 13:26:00,
2013-05-21 08:31:00,57.6,57.3,29.51,SW,234,1.0,5.0,99,0.00,,---,0.02,VWS V14.00,2013-05-21 13:31:00,
2013-05-21 08:36:00,57.9,57.6,29.52,SW,235,0.0,2.0,99,0.00,,---,0.02,VWS V14.00,2013-05-21 13:36:00,
2013-05-21 08:41:00,58.2,58.2,29.51,ENE,71,0.0,3.0,100,0.00,,---,0.02,VWS V14.00,2013-05-21 13:41:00,
2013-05-21 08:46:00,58.7,58.7,29.51,SSE,159,0.0,3.0,100,0.00,,---,0.02,VWS V14.00,2013-05-21 13:46:00,
2013-05-21 08:51:00,58.9,58.9,29.51,SSE,161,0.0,1.0,100,0.00,,---,0.02,VWS V14.00,2013-05-21 13:51:00,
2013-05-21 08:56:00,59.1,59.1,29.52,SSE,161,0.0,5.0,100,0.00,,---,0.02,VWS V14.00,2013-05-21 13:56:00,
2013-05-21 09:01:00,59.1,58.8,29.52,SSE,155,2.0,7.0,99,0.00,,---,0.02,VWS V14.00,2013-05-21 14:01:00,
2013-05-21 09:06:00,59.3,59.0,29.52,SSW,193,4.0,7.0,99,0.00,,---,0.02,VWS V14.00,2013-05-21 14:06:00,
2013-05-21 09:11:00,59.3,58.7,29.52,South,171,3.0,7.0,98,0.00,,---,0.02,VWS V14.00,2013-05-21 14:11:00,
2013-05-21 09:16:00,59.3,58.5,29.52,South,181,4.0,7.0,97,0.00,,---,0.02,VWS V14.00,2013-05-21 14:16:00,
2013-05-21 09:21:00,59.4,58.5,29.52,SSE,153,3.0,9.0,97,0.00,,---,0.02,VWS V14.00,2013-05-21 14:21:00,
2013-05-21 09:26:00,59.4,58.5,29.52,South,188,0.0,9.0,97,0.00,,---,0.02,VWS V14.00,2013-05-21 14:26:00,
2013-05-21 09:31:00,59.5,58.7,29.52,SSE,151,0.0,9.0,97,0.00,,---,0.02,VWS V14.00,2013-05-21 14:31:00,
2013-05-21 09:36:00,59.8,59.0,29.53,SW,218,4.0,6.0,97,0.00,,---,0.02,VWS V14.00,2013-05-21 14:36:00,
2013-05-21 09:41:00,60.2,59.1,29.52,SSE,155,1.0,6.0,96,0.00,,---,0.02,VWS V14.00,2013-05-21 14:41:00,
2013-05-21 09:46:00,60.6,59.5,29.52,SSE,155,1.0,6.0,96,0.00,,---,0.02,VWS V14.00,2013-05-21 14:46:00,
2013-05-21 09:51:00,60.9,59.5,29.53,SSE,151,5.0,7.0,95,0.00,,---,0.02,VWS V14.00,2013-05-21 14:51:00,
2013-05-21 09:56:00,61.2,59.2,29.53,SE,139,7.0,7.0,93,0.00,,---,0.02,VWS V14.00,2013-05-21 14:56:00,
2013-05-21 10:01:00,61.1,58.8,29.53,South,191,2.0,7.0,92,0.00,,---,0.02,VWS V14.00,2013-05-21 15:01:00,
2013-05-21 10:06:00,60.9,58.6,29.53,South,176,2.0,7.0,92,0.00,,---,0.02,VWS V14.00,2013-05-21 15:06:00,
2013-05-21 10:11:00,61.0,59.0,29.53,SSE,150,6.0,7.0,93,0.00,,---,0.02,VWS V14.00,2013-05-21 15:11:00,
2013-05-21 10:16:00,61.2,59.2,29.53,SE,129,3.0,10.0,93,0.00,,---,0.02,VWS V14.00,2013-05-21 15:16:00,
2013-05-21 10:21:00,61.5,59.2,29.52,SSW,209,2.0,6.0,92,0.00,,---,0.02,VWS V14.00,2013-05-21 15:21:00,
2013-05-21 10:26:00,61.8,59.2,29.53,South,176,0.0,7.0,91,0.00,,---,0.02,VWS V14.00,2013-05-21 15:26:00,
2013-05-21 10:31:00,62.0,59.3,29.53,SSE,163,3.0,9.0,91,0.00,,---,0.02,VWS V14.00,2013-05-21 15:31:00,
2013-05-21 10:36:00,62.1,58.8,29.53,SW,217,4.0,7.0,89,0.00,,---,0.02,VWS V14.00,2013-05-21 15:36:00,
2013-05-21 10:41:00,61.9,58.6,29.53,SSW,193,5.0,9.0,89,0.00,,---,0.02,VWS V14.00,2013-05-21 15:41:00,
2013-05-21 10:46:00,62.1,58.8,29.53,SSW,194,1.0,9.0,89,0.00,,---,0.02,VWS V14.00,2013-05-21 15:46:00,
2013-05-21 10:51:00,62.6,59.6,29.53,West,270,2.0,9.0,90,0.00,,---,0.02,VWS V14.00,2013-05-21 15:51:00,
2013-05-21 10:56:00,62.9,58.7,29.54,SSE,152,5.0,9.0,86,0.00,,---,0.02,VWS V14.00,2013-05-21 15:56:00,
2013-05-21 11:01:00,62.9,58.7,29.54,SSE,153,4.0,10.0,86,0.00,,---,0.02,VWS V14.00,2013-05-21 16:01:00,
2013-05-21 11:06:00,63.0,58.8,29.54,SSW,194,3.0,8.0,86,0.00,,---,0.02,VWS V14.00,2013-05-21 16:06:00,
2013-05-21 11:11:00,63.3,59.0,29.55,SSE,166,3.0,8.0,86,0.00,,---,0.02,VWS V14.00,2013-05-21 16:11:00,
2013-05-21 11:16:00,63.5,58.9,29.55,South,171,2.0,8.0,85,0.00,,---,0.02,VWS V14.00,2013-05-21 16:16:00,
2013-05-21 11:21:00,63.7,59.4,29.55,SSE,160,4.0,10.0,86,0.00,,---,0.03,VWS V14.00,2013-05-21 16:21:00,
2013-05-21 11:26:00,64.0,59.7,29.54,South,178,2.0,10.0,86,0.00,,---,0.03,VWS V14.00,2013-05-21 16:26:00,
2013-05-21 11:31:00,64.4,59.5,29.54,SSE,152,5.0,10.0,84,0.00,,---,0.03,VWS V14.00,2013-05-21 16:31:00,
2013-05-21 11:36:00,64.5,59.2,29.55,SSE,148,6.0,7.0,83,0.00,,---,0.03,VWS V14.00,2013-05-21 16:36:00,
2013-05-21 11:41:00,64.7,59.8,29.55,SW,225,4.0,7.0,84,0.00,,---,0.03,VWS V14.00,2013-05-21 16:41:00,
2013-05-21 11:46:00,65.0,59.7,29.54,SSW,193,3.0,7.0,83,0.00,,---,0.03,VWS V14.00,2013-05-21 16:46:00,
2013-05-21 11:51:00,65.2,59.2,29.54,SSW,198,1.0,5.0,81,0.00,,---,0.03,VWS V14.00,2013-05-21 16:51:00,
2013-05-21 11:56:00,65.2,59.2,29.54,SSE,167,2.0,5.0,81,0.00,,---,0.03,VWS V14.00,2013-05-21 16:56:00,
2013-05-21 12:01:00,65.2,59.6,29.54,WSW,238,0.0,6.0,82,0.00,,---,0.03,VWS V14.00,2013-05-21 17:01:00,
2013-05-21 12:06:00,65.6,60.0,29.54,SE,134,5.0,7.0,82,0.00,,---,0.03,VWS V14.00,2013-05-21 17:06:00,
2013-05-21 12:11:00,65.8,59.5,29.54,SE,144,0.0,7.0,80,0.00,,---,0.03,VWS V14.00,2013-05-21 17:11:00,
2013-05-21 12:16:00,65.7,59.0,29.54,SE,131,3.0,7.0,79,0.00,,---,0.03,VWS V14.00,2013-05-21 17:16:00,
2013-05-21 12:21:00,65.4,59.4,29.54,South,188,0.0,4.0,81,0.00,,---,0.03,VWS V14.00,2013-05-21 17:21:00,
2013-05-21 12:26:00,65.1,59.1,29.54,SW,217,0.0,5.0,81,0.00,,---,0.03,VWS V14.00,2013-05-21 17:26:00,
2013-05-21 12:31:00,64.9,60.0,29.54,SE,142,0.0,5.0,84,0.00,,---,0.03,VWS V14.00,2013-05-21 17:31:00,
2013-05-21 12:36:00,64.5,60.5,29.54,SE,131,0.0,2.0,87,0.00,,---,0.03,VWS V14.00,2013-05-21 17:36:00,
2013-05-21 12:41:00,64.3,60.7,29.54,SE,131,0.0,2.0,88,0.00,,---,0.03,VWS V14.00,2013-05-21 17:41:00,
2013-05-21 12:46:00,64.5,61.5,29.54,WSW,241,0.0,2.0,90,0.00,,---,0.03,VWS V14.00,2013-05-21 17:46:00,
2013-05-21 12:51:00,64.9,62.2,29.54,WSW,241,0.0,1.0,91,0.00,,---,0.03,VWS V14.00,2013-05-21 17:51:00,
2013-05-21 12:56:00,65.3,61.0,29.54,South,169,0.0,3.0,86,0.00,,---,0.03,VWS V14.00,2013-05-21 17:56:00,
2013-05-21 13:01:00,65.7,59.7,29.53,SSE,152,3.0,4.0,81,0.00,,---,0.03,VWS V14.00,2013-05-21 18:01:00,
2013-05-21 13:06:00,65.8,59.5,29.53,SE,144,0.0,3.0,80,0.00,,---,0.03,VWS V14.00,2013-05-21 18:06:00,
2013-05-21 13:11:00,65.8,60.5,29.53,SSE,167,0.0,3.0,83,0.00,,---,0.03,VWS V14.00,2013-05-21 18:11:00,
2013-05-21 13:16:00,65.9,60.6,29.53,South,171,0.0,3.0,83,0.00,,---,0.03,VWS V14.00,2013-05-21 18:16:00,
2013-05-21 13:21:00,66.0,59.3,29.53,SSE,163,0.0,4.0,79,0.00,,---,0.03,VWS V14.00,2013-05-21 18:21:00,
2013-05-21 13:26:00,66.0,58.6,29.53,SSE,153,3.0,5.0,77,0.00,,---,0.03,VWS V14.00,2013-05-21 18:26:00,
2013-05-21 13:33:00,66.1,58.7,29.53,SW,219,4.0,4.0,77,0.00,,---,0.03,VWS V14.00,2013-05-21 18:33:00,
2013-05-21 13:38:00,66.2,59.2,29.52,South,173,1.0,5.0,78,0.00,,---,0.03,VWS V14.00,2013-05-21 18:38:00,
2013-05-21 13:43:00,66.4,59.3,29.52,SSW,196,1.0,5.0,78,0.00,,---,0.03,VWS V14.00,2013-05-21 18:43:00,
2013-05-21 13:48:00,66.7,60.0,29.53,SW,228,1.0,5.0,79,0.00,,---,0.03,VWS V14.00,2013-05-21 18:48:00,
2013-05-21 13:53:00,66.7,59.3,29.53,SSE,163,3.0,3.0,77,0.00,,---,0.03,VWS V14.00,2013-05-21 18:53:00,
2013-05-21 13:58:00,66.7,59.3,29.53,SSE,156,1.0,6.0,77,0.00,,---,0.03,VWS V14.00,2013-05-21 18:58:00,
2013-05-21 14:03:00,66.6,59.2,29.53,South,182,1.0,6.0,77,0.00,,---,0.03,VWS V14.00,2013-05-21 19:03:00,
2013-05-21 14:08:00,66.4,59.0,29.54,SSW,201,0.0,3.0,77,0.00,,---,0.03,VWS V14.00,2013-05-21 19:08:00,
2013-05-21 14:13:00,66.4,59.7,29.54,SW,230,0.0,3.0,79,0.00,,---,0.03,VWS V14.00,2013-05-21 19:13:00,
2013-05-21 14:18:00,66.4,59.0,29.54,SW,220,0.0,3.0,77,0.00,,---,0.03,VWS V14.00,2013-05-21 19:18:00,
2013-05-21 14:23:00,66.3,59.2,29.54,South,173,0.0,3.0,78,0.00,,---,0.03,VWS V14.00,2013-05-21 19:23:00,
2013-05-21 14:28:00,66.3,58.9,29.55,SE,140,1.0,5.0,77,0.00,,---,0.03,VWS V14.00,2013-05-21 19:28:00,
2013-05-21 14:33:00,66.2,59.9,29.54,SE,138,0.0,5.0,80,0.00,,---,0.03,VWS V14.00,2013-05-21 19:33:00,
2013-05-21 14:38:00,65.8,60.5,29.55,WSW,238,0.0,3.0,83,0.00,,---,0.03,VWS V14.00,2013-05-21 19:38:00,
2013-05-21 14:43:00,65.1,60.5,29.55,South,186,0.0,3.0,85,0.00,,---,0.03,VWS V14.00,2013-05-21 19:43:00,
2013-05-21 14:48:00,64.7,60.8,29.55,NW,306,0.0,3.0,87,0.00,,---,0.03,VWS V14.00,2013-05-21 19:48:00,
2013-05-21 14:53:00,64.2,60.6,29.55,SW,225,0.0,3.0,88,0.00,,---,0.03,VWS V14.00,2013-05-21 19:53:00,
2013-05-21 14:58:00,63.9,60.3,29.55,South,184,0.0,3.0,88,0.00,,---,0.03,VWS V14.00,2013-05-21 19:58:00,
2013-05-21 15:03:00,63.8,60.2,29.56,SSE,167,1.0,4.0,88,0.00,,---,0.03,VWS V14.00,2013-05-21 20:03:00,
2013-05-21 15:08:00,63.7,59.8,29.55,SSE,150,0.0,3.0,87,0.00,,---,0.03,VWS V14.00,2013-05-21 20:08:00,
2013-05-21 15:13:00,63.6,60.0,29.55,SE,142,0.0,3.0,88,0.00,,---,0.03,VWS V14.00,2013-05-21 20:13:00,
2013-05-21 15:18:00,63.6,60.0,29.56,SE,142,0.0,3.0,88,0.00,,---,0.04,VWS V14.00,2013-05-21 20:18:00,
2013-05-21 15:23:00,63.7,60.4,29.56,SE,142,0.0,0.0,89,0.00,,---,0.04,VWS V14.00,2013-05-21 20:23:00,
2013-05-21 15:28:00,63.6,60.0,29.56,SE,142,0.0,1.0,88,0.00,,---,0.04,VWS V14.00,2013-05-21 20:28:00,
2013-05-21 15:33:00,63.5,59.9,29.56,SE,142,0.0,1.0,88,0.00,,---,0.04,VWS V14.00,2013-05-21 20:33:00,
2013-05-21 15:38:00,63.4,60.1,29.56,SE,142,0.0,0.0,89,0.00,,---,0.04,VWS V14.00,2013-05-21 20:38:00,
2013-05-21 15:43:00,63.4,59.8,29.56,SE,142,0.0,0.0,88,0.00,,---,0.04,VWS V14.00,2013-05-21 20:43:00,
2013-05-21 15:48:00,63.4,60.4,29.56,SE,142,0.0,0.0,90,0.00,,---,0.04,VWS V14.00,2013-05-21 20:48:00,
2013-05-21 15:53:00,63.4,60.4,29.55,SE,142,0.0,0.0,90,0.00,,---,0.04,VWS V14.00,2013-05-21 20:53:00,
2013-05-21 15:58:00,63.5,60.5,29.56,SE,142,0.0,0.0,90,0.00,,---,0.04,VWS V14.00,2013-05-21 20:58:00,
2013-05-21 16:03:00,63.9,60.6,29.56,SE,142,0.0,0.0,89,0.00,,---,0.04,VWS V14.00,2013-05-21 21:03:00,
2013-05-21 16:08:00,64.4,60.8,29.55,NE,40,0.0,3.0,88,0.00,,---,0.04,VWS V14.00,2013-05-21 21:08:00,
2013-05-21 16:13:00,65.0,62.3,29.55,North,355,0.0,3.0,91,0.00,,---,0.04,VWS V14.00,2013-05-21 21:13:00,
2013-05-21 16:18:00,65.6,61.3,29.55,North,360,0.0,3.0,86,0.00,,---,0.04,VWS V14.00,2013-05-21 21:18:00,
2013-05-21 16:23:00,65.6,61.6,29.56,North,360,0.0,1.0,87,0.00,,---,0.04,VWS V14.00,2013-05-21 21:23:00,
2013-05-21 16:28:00,65.8,61.2,29.56,North,355,0.0,1.0,85,0.00,,---,0.04,VWS V14.00,2013-05-21 21:28:00,
2013-05-21 16:33:00,65.8,60.5,29.56,North,355,0.0,1.0,83,0.00,,---,0.04,VWS V14.00,2013-05-21 21:33:00,
2013-05-21 16:38:00,65.8,60.2,29.56,North,360,0.0,1.0,82,0.00,,---,0.04,VWS V14.00,2013-05-21 21:38:00,
2013-05-21 16:43:00,65.8,61.2,29.57,WNW,301,2.0,7.0,85,0.00,,---,0.04,VWS V14.00,2013-05-21 21:43:00,
2013-05-21 16:48:00,65.0,60.0,29.58,North,9,1.0,7.0,84,0.00,,---,0.04,VWS V14.00,2013-05-21 21:48:00,
2013-05-21 16:53:00,63.8,58.5,29.58,NNE,17,0.0,9.0,83,0.00,,---,0.04,VWS V14.00,2013-05-21 21:53:00,
2013-05-21 16:58:00,62.6,58.4,29.58,North,5,1.0,9.0,86,0.00,,---,0.04,VWS V14.00,2013-05-21 21:58:00,
2013-05-21 17:03:00,62.1,58.2,29.58,NW,309,0.0,9.0,87,0.00,,---,0.04,VWS V14.00,2013-05-21 22:03:00,
2013-05-21 17:08:00,61.7,57.5,29.58,NW,315,3.0,4.0,86,0.00,,---,0.04,VWS V14.00,2013-05-21 22:08:00,
2013-05-21 17:13:00,61.1,57.2,29.58,ENE,76,4.0,6.0,87,0.00,,---,0.04,VWS V14.00,2013-05-21 22:13:00,
2013-05-21 17:18:00,60.4,56.5,29.58,NNE,16,0.0,7.0,87,0.00,,---,0.04,VWS V14.00,2013-05-21 22:18:00,
2013-05-21 17:23:00,60.2,56.6,29.59,NE,47,2.0,7.0,88,0.00,,---,0.04,VWS V14.00,2013-05-21 22:23:00,
2013-05-21 17:28:00,60.0,56.4,29.59,North,355,1.0,10.0,88,0.00,,---,0.04,VWS V14.00,2013-05-21 22:28:00,
2013-05-21 17:33:00,60.1,56.5,29.59,NNE,17,0.0,10.0,88,0.00,,---,0.04,VWS V14.00,2013-05-21 22:33:00,
2013-05-21 17:38:00,60.2,56.6,29.59,NNE,16,0.0,5.0,88,0.00,,---,0.04,VWS V14.00,2013-05-21 22:38:00,
2013-05-21 17:43:00,59.9,56.0,29.59,North,5,0.0,6.0,87,0.00,,---,0.04,VWS V14.00,2013-05-21 22:43:00,
2013-05-21 17:48:00,59.6,56.0,29.59,NE,42,0.0,6.0,88,0.00,,---,0.04,VWS V14.00,2013-05-21 22:48:00,
2013-05-21 17:53:00,59.3,55.4,29.60,NE,35,1.0,9.0,87,0.00,,---,0.04,VWS V14.00,2013-05-21 22:53:00,
2013-05-21 17:58:00,59.0,55.1,29.60,NNE,18,0.0,9.0,87,0.00,,---,0.04,VWS V14.00,2013-05-21 22:58:00,
2013-05-21 18:03:00,58.7,55.2,29.60,NNE,18,0.0,9.0,88,0.00,,---,0.04,VWS V14.00,2013-05-21 23:03:00,
2013-05-21 18:08:00,58.6,55.1,29.60,ENE,60,2.0,4.0,88,0.00,,---,0.04,VWS V14.00,2013-05-21 23:08:00,
2013-05-21 18:22:00,58.1,54.9,29.61,NNW,346,0.0,2.0,89,0.00,,---,0.04,VWS V14.00,2013-05-21 23:22:00,
2013-05-21 18:27:00,58.0,54.8,29.61,North,10,0.0,4.0,89,0.00,,---,0.04,VWS V14.00,2013-05-21 23:27:00,
2013-05-21 18:32:00,57.8,54.6,29.61,NE,50,0.0,6.0,89,0.00,,---,0.04,VWS V14.00,2013-05-21 23:32:00,
2013-05-21 18:37:00,57.5,54.0,29.62,NNE,29,0.0,6.0,88,0.00,,---,0.04,VWS V14.00,2013-05-21 23:37:00,
2013-05-21 18:42:00,57.3,54.1,29.62,North,5,0.0,6.0,89,0.00,,---,0.04,VWS V14.00,2013-05-21 23:42:00,
2013-05-21 18:47:00,57.1,53.9,29.62,North,5,0.0,6.0,89,0.00,,---,0.04,VWS V14.00,2013-05-21 23:47:00,
2013-05-21 18:52:00,56.8,53.9,29.62,ENE,69,0.0,3.0,90,0.00,,---,0.04,VWS V14.00,2013-05-21 23:52:00,
2013-05-21 18:57:00,56.7,53.8,29.62,NNE,12,0.0,3.0,90,0.00,,---,0.04,VWS V14.00,2013-05-21 23:57:00,
2013-05-21 19:02:00,56.4,53.5,29.62,ENE,63,0.0,5.0,90,0.00,,---,0.04,VWS V14.00,2013-05-22 00:02:00,
2013-05-21 19:07:00,56.3,53.4,29.62,NNE,14,0.0,2.0,90,0.00,,---,0.04,VWS V14.00,2013-05-22 00:07:00,
2013-05-21 19:12:00,56.1,53.2,29.62,NW,310,0.0,7.0,90,0.00,,---,0.04,VWS V14.00,2013-05-22 00:12:00,
2013-05-21 19:17:00,55.8,52.9,29.61,NNW,340,0.0,7.0,90,0.00,,---,0.04,VWS V14.00,2013-05-22 00:17:00,
2013-05-21 19:22:00,55.6,52.7,29.62,ENE,73,1.0,5.0,90,0.00,,---,0.04,VWS V14.00,2013-05-22 00:22:00,
2013-05-21 19:27:00,55.5,52.9,29.62,NNE,27,0.0,5.0,91,0.00,,---,0.04,VWS V14.00,2013-05-22 00:27:00,
2013-05-21 19:32:00,55.3,52.7,29.62,NNE,30,1.0,5.0,91,0.00,,---,0.04,VWS V14.00,2013-05-22 00:32:00,
2013-05-21 19:37:00,55.2,52.6,29.62,NNE,30,0.0,2.0,91,0.00,,---,0.04,VWS V14.00,2013-05-22 00:37:00,
2013-05-21 19:42:00,55.2,52.9,29.62,NNE,29,0.0,2.0,92,0.00,,---,0.04,VWS V14.00,2013-05-22 00:42:00,
2013-05-21 19:47:00,55.1,52.8,29.62,NNE,29,0.0,2.0,92,0.00,,---,0.04,VWS V14.00,2013-05-22 00:47:00,
2013-05-21 19:52:00,55.0,52.4,29.62,NNE,29,0.0,2.0,91,0.00,,---,0.04,VWS V14.00,2013-05-22 00:52:00,
2013-05-21 19:57:00,54.9,52.3,29.62,NNE,29,0.0,2.0,91,0.00,,---,0.04,VWS V14.00,2013-05-22 00:57:00,
2013-05-21 20:02:00,54.6,52.0,29.62,North,11,0.0,7.0,91,0.00,,---,0.04,VWS V14.00,2013-05-22 01:02:00,
2013-05-21 20:07:00,54.4,51.8,29.62,NNE,12,0.0,0.0,91,0.00,,---,0.04,VWS V14.00,2013-05-22 01:07:00,
2013-05-21 20:12:00,54.2,51.6,29.63,NNE,12,0.0,0.0,91,0.00,,---,0.04,VWS V14.00,2013-05-22 01:12:00,
2013-05-21 20:17:00,54.0,51.4,29.63,NE,43,0.0,2.0,91,0.00,,---,0.04,VWS V14.00,2013-05-22 01:17:00,
2013-05-21 20:22:00,53.8,51.2,29.63,NE,43,0.0,0.0,91,0.00,,---,0.04,VWS V14.00,2013-05-22 01:22:00,
2013-05-21 20:27:00,53.6,51.0,29.63,ENE,58,1.0,3.0,91,0.00,,---,0.04,VWS V14.00,2013-05-22 01:27:00,
2013-05-21 20:32:00,53.4,51.1,29.63,North,350,0.0,3.0,92,0.00,,---,0.04,VWS V14.00,2013-05-22 01:32:00,
2013-05-21 20:39:00,53.1,50.8,29.64,NE,48,0.0,3.0,92,0.00,,---,0.04,VWS V14.00,2013-05-22 01:39:00,
2013-05-21 20:46:00,53.0,50.7,29.64,ENE,67,0.0,3.0,92,0.00,,---,0.04,VWS V14.00,2013-05-22 01:46:00,
2013-05-21 20:51:00,52.9,50.6,29.63,NNE,23,0.0,1.0,92,0.00,,---,0.04,VWS V14.00,2013-05-22 01:51:00,
2013-05-21 20:56:00,52.8,50.5,29.63,NE,51,1.0,3.0,92,0.00,,---,0.04,VWS V14.00,2013-05-22 01:56:00,
2013-05-21 21:01:00,52.7,50.7,29.64,NNE,27,0.0,5.0,93,0.00,,---,0.04,VWS V14.00,2013-05-22 02:01:00,
2013-05-21 21:06:00,52.6,50.6,29.64,NNE,30,0.0,2.0,93,0.00,,---,0.04,VWS V14.00,2013-05-22 02:06:00,
2013-05-21 21:11:00,52.6,50.6,29.63,West,261,0.0,5.0,93,0.00,,---,0.04,VWS V14.00,2013-05-22 02:11:00,
2013-05-21 21:16:00,52.5,50.5,29.64,NNW,337,3.0,6.0,93,0.00,,---,0.04,VWS V14.00,2013-05-22 02:16:00,
2013-05-21 21:21:00,52.4,50.7,29.65,NNE,30,1.0,6.0,94,0.00,,---,0.04,VWS V14.00,2013-05-22 02:21:00,
2013-05-21 21:26:00,52.3,50.6,29.65,NNE,25,2.0,6.0,94,0.00,,---,0.04,VWS V14.00,2013-05-22 02:26:00,
2013-05-21 21:31:00,52.2,50.5,29.65,NE,47,0.0,6.0,94,0.00,,---,0.04,VWS V14.00,2013-05-22 02:31:00,
2013-05-21 21:36:00,52.1,50.4,29.66,NE,40,0.0,5.0,94,0.00,,---,0.04,VWS V14.00,2013-05-22 02:36:00,
2013-05-21 21:41:00,51.9,50.2,29.66,NE,40,0.0,5.0,94,0.00,,---,0.04,VWS V14.00,2013-05-22 02:41:00,
2013-05-21 21:46:00,51.8,50.1,29.66,NE,40,0.0,5.0,94,0.00,,---,0.04,VWS V14.00,2013-05-22 02:46:00,
2013-05-21 21:51:00,51.8,50.4,29.66,NE,40,0.0,0.0,95,0.00,,---,0.05,VWS V14.00,2013-05-22 02:51:00,
2013-05-21 21:56:00,51.7,50.3,29.66,NE,40,0.0,1.0,95,0.00,,---,0.05,VWS V14.00,2013-05-22 02:56:00,
2013-05-21 22:01:00,51.7,50.3,29.66,NE,40,0.0,1.0,95,0.00,,---,0.05,VWS V14.00,2013-05-22 03:01:00,
2013-05-21 22:06:00,51.6,50.2,29.66,NNW,329,0.0,2.0,95,0.00,,---,0.05,VWS V14.00,2013-05-22 03:06:00,
2013-05-21 22:11:00,51.5,50.1,29.66,NNE,28,0.0,4.0,95,0.00,,---,0.05,VWS V14.00,2013-05-22 03:11:00,
2013-05-21 22:16:00,51.4,50.0,29.67,NNE,30,0.0,6.0,95,0.00,,---,0.05,VWS V14.00,2013-05-22 03:16:00,
2013-05-21 22:21:00,51.2,49.8,29.67,NNE,19,0.0,4.0,95,0.00,,---,0.05,VWS V14.00,2013-05-22 03:21:00,
2013-05-21 22:26:00,51.1,50.0,29.67,North,360,4.0,4.0,96,0.00,,---,0.05,VWS V14.00,2013-05-22 03:26:00,
2013-05-21 22:31:00,51.0,49.9,29.67,NNE,24,2.0,4.0,96,0.00,,---,0.05,VWS V14.00,2013-05-22 03:31:00,
2013-05-21 22:36:00,50.8,49.4,29.67,North,355,0.0,2.0,95,0.00,,---,0.05,VWS V14.00,2013-05-22 03:36:00,
2013-05-21 22:41:00,50.6,49.2,29.67,North,355,0.0,4.0,95,0.00,,---,0.05,VWS V14.00,2013-05-22 03:41:00,
2013-05-21 22:46:00,50.5,49.1,29.67,North,355,0.0,4.0,95,0.00,,---,0.05,VWS V14.00,2013-05-22 03:46:00,
2013-05-21 22:51:00,50.3,48.9,29.67,North,355,0.0,1.0,95,0.00,,---,0.05,VWS V14.00,2013-05-22 03:51:00,
2013-05-21 22:56:00,50.2,48.8,29.67,NNE,15,0.0,3.0,95,0.00,,---,0.05,VWS V14.00,2013-05-22 03:56:00,
2013-05-21 23:01:00,50.1,48.7,29.67,NNE,15,0.0,3.0,95,0.00,,---,0.05,VWS V14.00,2013-05-22 04:01:00,
2013-05-21 23:06:00,50.0,48.6,29.67,NNE,15,0.0,0.0,95,0.00,,---,0.05,VWS V14.00,2013-05-22 04:06:00,
2013-05-21 23:11:00,49.9,48.5,29.67,NNE,15,0.0,0.0,95,0.00,,---,0.05,VWS V14.00,2013-05-22 04:11:00,
2013-05-21 23:16:00,49.8,48.4,29.68,NNE,15,0.0,1.0,95,0.00,,---,0.05,VWS V14.00,2013-05-22 04:16:00,
2013-05-21 23:21:00,49.6,48.2,29.68,NNE,14,0.0,1.0,95,0.00,,---,0.05,VWS V14.00,2013-05-22 04:21:00,
2013-05-21 23:26:00,49.5,48.1,29.68,NNE,30,0.0,4.0,95,0.00,,---,0.05,VWS V14.00,2013-05-22 04:26:00,
2013-05-21 23:31:00,49.4,48.0,29.68,North,5,1.0,4.0,95,0.00,,---,0.05,VWS V14.00,2013-05-22 04:31:00,
2013-05-21 23:36:00,49.2,47.8,29.67,NNE,28,2.0,5.0,95,0.00,,---,0.05,VWS V14.00,2013-05-22 04:36:00,
2013-05-21 23:41:00,49.0,47.9,29.67,NNE,29,0.0,5.0,96,0.00,,---,0.05,VWS V14.00,2013-05-22 04:41:00,
2013-05-21 23:46:00,48.9,47.8,29.67,North,5,4.0,5.0,96,0.00,,---,0.05,VWS V14.00,2013-05-22 04:46:00,
2013-05-21 23:51:00,48.7,47.6,29.67,NNE,28,0.0,0.0,96,0.00,,---,0.05,VWS V14.00,2013-05-22 04:51:00,
2013-05-21 23:56:00,48.6,47.5,29.67,NNE,28,0.0,2.0,96,0.00,,---,0.05,VWS V14.00,2013-05-22 04:56:00,